createdAt,value
2023-05-01T00:01:52.917Z,10.09
2023-05-01T00:04:22.162Z,10.13
2023-05-01T00:06:49.409Z,10.17
2023-05-01T00:09:16.868Z,10.21
2023-05-01T00:11:44.168Z,10.24
2023-05-01T00:14:11.217Z,10.28
2023-05-01T00:16:38.357Z,10.31
2023-05-01T00:19:05.500Z,10.35
2023-05-01T00:21:32.595Z,10.37
2023-05-01T00:23:59.680Z,10.40
2023-05-01T00:26:30.589Z,10.43
2023-05-01T00:28:58.662Z,10.45
2023-05-01T00:31:26.177Z,10.47
2023-05-01T00:33:53.464Z,10.50
2023-05-01T00:36:21.204Z,10.52
2023-05-01T00:38:48.345Z,10.54
2023-05-01T00:41:15.572Z,10.57
2023-05-01T00:43:42.949Z,10.58
2023-05-01T00:46:11.627Z,10.60
2023-05-01T00:48:38.828Z,10.61
2023-05-01T00:51:08.188Z,10.64
2023-05-01T00:53:35.678Z,10.65
2023-05-01T00:56:04.426Z,10.67
2023-05-01T00:58:32.096Z,10.69
2023-05-01T01:00:59.270Z,10.71
2023-05-01T01:03:26.466Z,10.72
2023-05-01T01:06:14.984Z,10.74
2023-05-01T01:09:41.194Z,10.75
2023-05-01T01:12:11.061Z,10.76
2023-05-01T01:15:14.880Z,10.77
2023-05-01T01:17:51.201Z,10.77
2023-05-01T01:20:39.943Z,10.78
2023-05-01T01:23:44.929Z,10.79
2023-05-01T01:26:24.828Z,10.80
2023-05-01T01:29:05.168Z,10.80
2023-05-01T01:31:58.126Z,10.80
2023-05-01T01:34:35.626Z,10.79
2023-05-01T01:37:12.125Z,10.79
2023-05-01T01:40:02.966Z,10.78
2023-05-01T01:42:53.257Z,10.78
2023-05-01T01:45:26.750Z,10.78
2023-05-01T01:47:56.579Z,10.77
2023-05-01T01:50:27.070Z,10.77
2023-05-01T01:52:57.242Z,10.76
2023-05-01T01:55:29.771Z,10.76
2023-05-01T01:57:59.841Z,10.75
2023-05-01T02:00:28.952Z,10.74
2023-05-01T02:02:59.593Z,10.74
2023-05-01T02:05:27.760Z,10.74
2023-05-01T02:07:56.875Z,10.74
2023-05-01T02:10:25.895Z,10.74
2023-05-01T02:12:58.403Z,10.75
2023-05-01T02:15:28.117Z,10.75
2023-05-01T02:17:56.454Z,10.74
2023-05-01T02:20:23.985Z,10.74
2023-05-01T02:22:53.743Z,10.74
2023-05-01T02:25:21.467Z,10.74
2023-05-01T02:27:56.710Z,10.75
2023-05-01T02:30:23.985Z,10.75
2023-05-01T02:32:51.102Z,10.74
2023-05-01T02:35:18.457Z,10.74
2023-05-01T02:37:46.314Z,10.73
2023-05-01T02:40:15.823Z,10.73
2023-05-01T02:42:48.317Z,10.72
2023-05-01T02:45:26.354Z,10.71
2023-05-01T02:47:59.884Z,10.72
2023-05-01T02:50:27.671Z,10.73
2023-05-01T02:52:56.621Z,10.73
2023-05-01T02:55:47.438Z,10.73
2023-05-01T02:58:19.236Z,10.74
2023-05-01T03:00:49.993Z,10.75
2023-05-01T03:03:19.059Z,10.76
2023-05-01T03:05:46.237Z,10.77
2023-05-01T03:08:13.697Z,10.78
2023-05-01T03:10:44.583Z,10.79
2023-05-01T03:13:12.072Z,10.79
2023-05-01T03:15:39.662Z,10.80
2023-05-01T03:18:07.241Z,10.81
2023-05-01T03:20:34.372Z,10.82
2023-05-01T03:23:02.468Z,10.84
2023-05-01T03:25:29.908Z,10.86
2023-05-01T03:27:57.055Z,10.88
2023-05-01T03:30:24.485Z,10.88
2023-05-01T03:32:52.280Z,10.91
2023-05-01T03:35:23.828Z,10.92
2023-05-01T03:37:51.072Z,10.93
2023-05-01T03:40:43.777Z,10.95
2023-05-01T03:43:33.921Z,10.98
2023-05-01T03:46:04.287Z,11.00
2023-05-01T03:48:31.740Z,11.02
2023-05-01T03:50:59.273Z,11.05
2023-05-01T03:53:26.958Z,11.08
2023-05-01T03:55:54.520Z,11.14
2023-05-01T03:58:22.594Z,11.18
2023-05-01T04:00:51.053Z,11.23
2023-05-01T04:03:18.810Z,11.28
2023-05-01T04:05:47.188Z,11.32
2023-05-01T04:08:14.451Z,11.36
2023-05-01T04:10:41.634Z,11.41
2023-05-01T04:13:09.301Z,11.45
2023-05-01T04:15:36.478Z,11.50
2023-05-01T04:18:03.663Z,11.53
2023-05-01T04:20:31.566Z,11.57
2023-05-01T04:22:58.612Z,11.59
2023-05-01T04:25:26.236Z,11.60
2023-05-01T04:27:58.215Z,11.61
2023-05-01T04:30:25.314Z,11.60
2023-05-01T04:32:52.420Z,11.60
2023-05-01T04:35:19.673Z,11.62
2023-05-01T04:37:47.479Z,11.63
2023-05-01T04:40:14.788Z,11.62
2023-05-01T04:42:42.694Z,11.62
2023-05-01T04:45:12.363Z,11.64
2023-05-01T04:47:39.903Z,11.67
2023-05-01T04:50:08.132Z,11.72
2023-05-01T04:52:36.246Z,11.77
2023-05-01T04:55:04.201Z,11.83
2023-05-01T04:57:33.935Z,11.90
2023-05-01T05:00:02.194Z,12.00
2023-05-01T05:02:32.078Z,12.09
2023-05-01T05:04:59.431Z,12.15
2023-05-01T05:07:26.595Z,12.21
2023-05-01T05:10:12.645Z,12.26
2023-05-01T05:12:40.330Z,12.33
2023-05-01T05:15:08.098Z,12.40
2023-05-01T05:17:35.333Z,12.45
2023-05-01T05:20:02.769Z,12.52
2023-05-01T05:22:30.876Z,12.58
2023-05-01T05:25:17.210Z,12.62
2023-05-01T05:27:44.859Z,12.65
2023-05-01T05:30:12.694Z,12.68
2023-05-01T05:32:40.361Z,12.72
2023-05-01T05:35:07.949Z,12.76
2023-05-01T05:37:35.099Z,12.81
2023-05-01T05:40:02.191Z,12.87
2023-05-01T05:42:31.836Z,12.98
2023-05-01T05:45:01.601Z,13.09
2023-05-01T05:47:28.926Z,13.16
2023-05-01T05:49:56.607Z,13.21
2023-05-01T05:52:24.012Z,13.26
2023-05-01T05:54:51.357Z,13.30
2023-05-01T05:57:18.501Z,13.34
2023-05-01T05:59:48.720Z,13.37
2023-05-01T06:02:16.538Z,13.45
2023-05-01T06:04:43.884Z,13.57
2023-05-01T06:07:11.829Z,13.69
2023-05-01T06:09:39.289Z,13.80
2023-05-01T06:12:07.024Z,13.91
2023-05-01T06:14:34.409Z,14.02
2023-05-01T06:17:01.745Z,14.12
2023-05-01T06:19:29.092Z,14.22
2023-05-01T06:22:04.711Z,14.29
2023-05-01T06:24:37.008Z,14.32
2023-05-01T06:27:07.884Z,14.32
2023-05-01T06:29:35.272Z,14.31
2023-05-01T06:32:02.907Z,14.31
2023-05-01T06:34:31.077Z,14.29
2023-05-01T06:36:59.434Z,14.28
2023-05-01T06:39:26.547Z,14.24
2023-05-01T06:41:58.885Z,14.18
2023-05-01T06:44:33.082Z,14.19
2023-05-01T06:47:02.084Z,14.20
2023-05-01T06:49:29.604Z,14.20
2023-05-01T06:51:57.442Z,14.20
2023-05-01T06:54:24.641Z,14.24
2023-05-01T06:56:51.706Z,14.26
2023-05-01T06:59:18.826Z,14.24
2023-05-01T07:01:46.466Z,14.21
2023-05-01T07:04:13.679Z,14.16
2023-05-01T07:06:40.798Z,14.09
2023-05-01T07:09:08.000Z,14.02
2023-05-01T07:11:36.095Z,13.98
2023-05-01T07:14:03.920Z,13.95
2023-05-01T07:16:31.012Z,13.93
2023-05-01T07:18:58.474Z,13.94
2023-05-01T07:21:26.045Z,13.95
2023-05-01T07:23:53.232Z,14.00
2023-05-01T07:26:20.404Z,14.05
2023-05-01T07:28:47.529Z,14.12
2023-05-01T07:31:14.769Z,14.23
2023-05-01T07:33:42.684Z,14.32
2023-05-01T07:36:09.751Z,14.39
2023-05-01T07:38:36.965Z,14.43
2023-05-01T07:41:04.154Z,14.39
2023-05-01T07:43:31.185Z,14.19
2023-05-01T07:46:00.809Z,13.92
2023-05-01T07:48:28.946Z,13.64
2023-05-01T07:50:57.267Z,13.38
2023-05-01T07:53:25.132Z,13.19
2023-05-01T07:55:52.429Z,13.02
2023-05-01T07:58:19.682Z,12.86
2023-05-01T08:00:46.795Z,12.77
2023-05-01T08:03:14.159Z,12.75
2023-05-01T08:05:42.304Z,12.80
2023-05-01T08:08:09.899Z,12.89
2023-05-01T08:10:37.459Z,13.01
2023-05-01T08:13:04.947Z,13.14
2023-05-01T08:15:32.076Z,13.30
2023-05-01T08:17:59.213Z,13.45
2023-05-01T08:20:26.292Z,13.52
2023-05-01T08:22:53.482Z,13.57
2023-05-01T08:25:20.709Z,13.67
2023-05-01T08:27:48.056Z,13.76
2023-05-01T08:30:15.505Z,13.77
2023-05-01T08:32:42.694Z,13.69
2023-05-01T08:35:10.287Z,13.61
2023-05-01T08:37:37.511Z,13.58
2023-05-01T08:40:08.964Z,13.60
2023-05-01T08:42:39.293Z,13.63
2023-05-01T08:45:10.972Z,13.71
2023-05-01T08:47:40.282Z,13.80
2023-05-01T08:50:14.598Z,13.89
2023-05-01T08:52:43.454Z,13.92
2023-05-01T08:55:14.570Z,13.92
2023-05-01T08:57:49.161Z,13.91
2023-05-01T09:00:21.699Z,13.91
2023-05-01T09:02:50.031Z,13.89
2023-05-01T09:05:20.097Z,13.85
2023-05-01T09:07:48.732Z,13.81
2023-05-01T09:10:19.854Z,13.81
2023-05-01T09:12:52.971Z,13.82
2023-05-01T09:15:22.344Z,13.82
2023-05-01T09:17:50.941Z,13.82
2023-05-01T09:20:19.276Z,13.87
2023-05-01T09:22:47.279Z,13.93
2023-05-01T09:25:14.576Z,14.01
2023-05-01T09:27:41.892Z,14.09
2023-05-01T09:30:09.668Z,14.17
2023-05-01T09:32:36.856Z,14.27
2023-05-01T09:35:10.383Z,14.36
2023-05-01T09:37:37.909Z,14.44
2023-05-01T09:40:05.236Z,14.50
2023-05-01T09:42:49.532Z,14.57
2023-05-01T09:45:17.865Z,14.66
2023-05-01T09:47:46.931Z,14.70
2023-05-01T09:50:30.898Z,14.72
2023-05-01T09:52:58.700Z,14.74
2023-05-01T09:55:26.753Z,14.76
2023-05-01T09:57:53.996Z,14.80
2023-05-01T10:00:22.476Z,14.83
2023-05-01T10:02:50.845Z,14.81
2023-05-01T10:05:20.158Z,14.73
2023-05-01T10:08:00.089Z,14.62
2023-05-01T10:10:28.192Z,14.46
2023-05-01T10:12:55.940Z,14.26
2023-05-01T10:15:26.723Z,14.10
2023-05-01T10:17:56.025Z,14.01
2023-05-01T10:20:26.148Z,13.91
2023-05-01T10:22:55.072Z,13.85
2023-05-01T10:25:23.844Z,13.82
2023-05-01T10:27:53.233Z,13.80
2023-05-01T10:30:22.386Z,13.83
2023-05-01T10:32:49.930Z,13.89
2023-05-01T10:35:25.677Z,13.92
2023-05-01T10:38:02.170Z,13.95
2023-05-01T10:40:48.474Z,14.05
2023-05-01T10:43:29.236Z,14.13
2023-05-01T10:46:08.764Z,14.16
2023-05-01T10:48:42.690Z,14.20
2023-05-01T10:51:18.322Z,14.21
2023-05-01T10:53:47.093Z,14.23
2023-05-01T10:56:32.869Z,14.28
2023-05-01T10:59:04.844Z,14.32
2023-05-01T11:01:33.500Z,14.35
2023-05-01T11:04:24.056Z,14.38
2023-05-01T11:07:08.829Z,14.48
2023-05-01T11:09:59.122Z,14.57
2023-05-01T11:12:45.446Z,14.65
2023-05-01T11:15:13.966Z,14.76
2023-05-01T11:17:41.080Z,14.85
2023-05-01T11:20:08.886Z,14.98
2023-05-01T11:22:37.726Z,15.08
2023-05-01T11:25:17.623Z,15.15
2023-05-01T11:27:52.429Z,15.27
2023-05-01T11:30:20.273Z,15.38
2023-05-01T11:32:49.852Z,15.44
2023-05-01T11:35:28.538Z,15.47
2023-05-01T11:37:56.234Z,15.47
2023-05-01T11:40:24.501Z,15.45
2023-05-01T11:43:00.292Z,15.40
2023-05-01T11:45:27.566Z,15.34
2023-05-01T11:47:54.721Z,15.26
2023-05-01T11:50:22.333Z,15.19
2023-05-01T11:52:54.446Z,15.13
2023-05-01T11:55:30.926Z,15.07
2023-05-01T11:57:58.160Z,14.95
2023-05-01T12:00:30.650Z,14.75
2023-05-01T12:03:00.015Z,14.46
2023-05-01T12:05:28.955Z,14.18
2023-05-01T12:08:18.853Z,13.92
2023-05-01T12:10:48.678Z,13.66
2023-05-01T12:13:17.099Z,13.46
2023-05-01T12:15:57.217Z,13.29
2023-05-01T12:18:24.783Z,13.09
2023-05-01T12:20:54.522Z,12.86
2023-05-01T12:23:33.721Z,12.60
2023-05-01T12:26:03.220Z,12.43
2023-05-01T12:28:33.511Z,12.38
2023-05-01T12:31:04.970Z,12.33
2023-05-01T12:33:33.009Z,12.21
2023-05-01T12:36:11.721Z,12.12
2023-05-01T12:38:39.141Z,12.08
2023-05-01T12:41:09.061Z,12.11
2023-05-01T12:43:38.311Z,12.16
2023-05-01T12:46:06.907Z,12.23
2023-05-01T12:48:39.214Z,12.28
2023-05-01T12:51:06.824Z,12.37
2023-05-01T12:53:34.379Z,12.46
2023-05-01T12:56:03.582Z,12.52
2023-05-01T12:58:38.121Z,12.56
2023-05-01T13:01:06.641Z,12.53
2023-05-01T13:03:34.758Z,12.49
2023-05-01T13:06:04.421Z,12.44
2023-05-01T13:08:38.983Z,12.39
2023-05-01T13:11:17.728Z,12.31
2023-05-01T13:13:46.848Z,12.28
2023-05-01T13:16:16.614Z,12.28
2023-05-01T13:18:47.048Z,12.25
2023-05-01T13:21:25.041Z,12.29
2023-05-01T13:24:00.469Z,12.32
2023-05-01T13:26:30.663Z,12.33
2023-05-01T13:29:00.408Z,12.31
2023-05-01T13:31:28.465Z,12.27
2023-05-01T13:33:57.562Z,12.28
2023-05-01T13:36:26.664Z,12.29
2023-05-01T13:38:57.224Z,12.25
2023-05-01T13:41:26.725Z,12.26
2023-05-01T13:43:56.444Z,12.30
2023-05-01T13:46:26.744Z,12.36
2023-05-01T13:48:53.944Z,12.36
2023-05-01T13:51:23.356Z,12.32
2023-05-01T13:53:54.006Z,12.28
2023-05-01T13:56:22.099Z,12.24
2023-05-01T13:58:50.610Z,12.22
2023-05-01T14:01:21.015Z,12.17
2023-05-01T14:03:49.539Z,12.13
2023-05-01T14:06:19.600Z,12.10
2023-05-01T14:08:48.517Z,12.06
2023-05-01T14:11:16.326Z,12.02
2023-05-01T14:13:45.993Z,11.96
2023-05-01T14:16:25.202Z,11.87
2023-05-01T14:18:57.612Z,11.77
2023-05-01T14:21:30.138Z,11.71
2023-05-01T14:23:57.394Z,11.70
2023-05-01T14:26:25.066Z,11.72
2023-05-01T14:28:52.218Z,11.71
2023-05-01T14:31:31.188Z,11.72
2023-05-01T14:34:03.214Z,11.73
2023-05-01T14:36:34.116Z,11.74
2023-05-01T14:39:02.819Z,11.75
2023-05-01T14:41:30.174Z,11.73
2023-05-01T14:43:57.614Z,11.73
2023-05-01T14:46:31.243Z,11.73
2023-05-01T14:49:00.234Z,11.74
2023-05-01T14:51:28.766Z,11.71
2023-05-01T14:53:56.186Z,11.69
2023-05-01T14:56:23.853Z,11.67
2023-05-01T14:58:51.107Z,11.63
2023-05-01T15:01:19.245Z,11.59
2023-05-01T15:03:46.608Z,11.56
2023-05-01T15:06:14.059Z,11.54
2023-05-01T15:08:41.404Z,11.54
2023-05-01T15:11:09.094Z,11.51
2023-05-01T15:13:36.790Z,11.50
2023-05-01T15:16:04.115Z,11.50
2023-05-01T15:18:31.557Z,11.49
2023-05-01T15:20:58.617Z,11.50
2023-05-01T15:23:27.603Z,11.54
2023-05-01T15:25:54.923Z,11.57
2023-05-01T15:28:22.195Z,11.59
2023-05-01T15:30:49.406Z,11.61
2023-05-01T15:33:19.261Z,11.65
2023-05-01T15:35:48.813Z,11.68
2023-05-01T15:38:15.957Z,11.68
2023-05-01T15:40:43.453Z,11.70
2023-05-01T15:43:10.527Z,11.70
2023-05-01T15:45:43.232Z,11.66
2023-05-01T15:48:11.621Z,11.65
2023-05-01T15:50:38.865Z,11.61
2023-05-01T15:53:05.982Z,11.55
2023-05-01T15:55:34.374Z,11.46
2023-05-01T15:58:02.957Z,11.39
2023-05-01T16:00:30.172Z,11.30
2023-05-01T16:02:57.456Z,11.23
2023-05-01T16:05:25.165Z,11.16
2023-05-01T16:07:55.823Z,11.11
2023-05-01T16:10:25.202Z,11.03
2023-05-01T16:12:55.567Z,10.97
2023-05-01T16:15:23.153Z,10.93
2023-05-01T16:17:51.692Z,10.89
2023-05-01T16:20:20.135Z,10.86
2023-05-01T16:22:47.249Z,10.82
2023-05-01T16:25:14.448Z,10.79
2023-05-01T16:27:44.670Z,10.76
2023-05-01T16:30:14.673Z,10.75
2023-05-01T16:32:42.564Z,10.72
2023-05-01T16:35:18.061Z,10.68
2023-05-01T16:37:45.182Z,10.67
2023-05-01T16:40:17.260Z,10.64
2023-05-01T16:42:52.125Z,10.61
2023-05-01T16:45:20.222Z,10.59
2023-05-01T16:47:47.655Z,10.55
2023-05-01T16:50:15.378Z,10.52
2023-05-01T16:52:42.510Z,10.49
2023-05-01T16:55:10.281Z,10.45
2023-05-01T16:57:37.533Z,10.42
2023-05-01T17:00:05.622Z,10.42
2023-05-01T17:02:33.945Z,10.40
2023-05-01T17:05:02.671Z,10.39
2023-05-01T17:07:32.374Z,10.39
2023-05-01T17:09:59.849Z,10.39
2023-05-01T17:12:28.020Z,10.39
2023-05-01T17:14:56.741Z,10.38
2023-05-01T17:17:23.975Z,10.34
2023-05-01T17:19:51.559Z,10.31
2023-05-01T17:22:18.677Z,10.30
2023-05-01T17:24:45.874Z,10.30
2023-05-01T17:27:13.833Z,10.31
2023-05-01T17:29:41.708Z,10.32
2023-05-01T17:32:09.006Z,10.32
2023-05-01T17:34:36.224Z,10.33
2023-05-01T17:37:03.356Z,10.34
2023-05-01T17:39:30.561Z,10.35
2023-05-01T17:41:57.648Z,10.35
2023-05-01T17:44:24.960Z,10.35
2023-05-01T17:46:52.079Z,10.34
2023-05-01T17:49:19.289Z,10.35
2023-05-01T17:51:46.478Z,10.33
2023-05-01T17:54:15.334Z,10.34
2023-05-01T17:56:42.597Z,10.35
2023-05-01T17:59:09.777Z,10.35
2023-05-01T18:01:37.090Z,10.37
2023-05-01T18:04:04.348Z,10.37
2023-05-01T18:06:32.084Z,10.37
2023-05-01T18:08:59.537Z,10.35
2023-05-01T18:11:27.790Z,10.31
2023-05-01T18:13:54.976Z,10.30
2023-05-01T18:16:23.611Z,10.28
2023-05-01T18:18:50.976Z,10.27
2023-05-01T18:21:18.313Z,10.27
2023-05-01T18:23:48.649Z,10.26
2023-05-01T18:26:16.799Z,10.25
2023-05-01T18:28:43.893Z,10.23
2023-05-01T18:31:11.159Z,10.21
2023-05-01T18:33:39.354Z,10.17
2023-05-01T18:36:07.062Z,10.13
2023-05-01T18:38:34.143Z,10.11
2023-05-01T18:41:01.179Z,10.10
2023-05-01T18:43:28.267Z,10.07
2023-05-01T18:45:55.415Z,10.04
2023-05-01T18:48:22.533Z,10.03
2023-05-01T18:51:00.899Z,10.01
2023-05-01T18:53:35.072Z,9.99
2023-05-01T18:56:02.245Z,9.94
2023-05-01T18:58:30.381Z,9.91
2023-05-01T19:00:57.575Z,9.86
2023-05-01T19:03:24.626Z,9.83
2023-05-01T19:05:52.090Z,9.80
2023-05-01T19:08:19.154Z,9.78
2023-05-01T19:10:46.219Z,9.73
2023-05-01T19:13:13.238Z,9.68
2023-05-01T19:15:40.560Z,9.63
2023-05-01T19:18:08.370Z,9.61
2023-05-01T19:20:35.439Z,9.59
2023-05-01T19:23:02.555Z,9.56
2023-05-01T19:25:30.370Z,9.51
2023-05-01T19:27:57.529Z,9.49
2023-05-01T19:30:24.632Z,9.49
2023-05-01T19:32:52.252Z,9.48
2023-05-01T19:35:19.395Z,9.45
2023-05-01T19:37:48.166Z,9.44
2023-05-01T19:40:16.676Z,9.41
2023-05-01T19:42:44.547Z,9.37
2023-05-01T19:45:11.756Z,9.35
2023-05-01T19:47:38.998Z,9.31
2023-05-01T19:50:06.892Z,9.29
2023-05-01T19:52:36.627Z,9.28
2023-05-01T19:55:05.200Z,9.26
2023-05-01T19:57:32.460Z,9.19
2023-05-01T19:59:59.789Z,9.16
2023-05-01T20:02:28.054Z,9.15
2023-05-01T20:04:55.398Z,9.15
2023-05-01T20:07:22.627Z,9.17
2023-05-01T20:09:50.217Z,9.18
2023-05-01T20:12:17.317Z,9.20
2023-05-01T20:14:44.428Z,9.20
2023-05-01T20:17:11.636Z,9.18
2023-05-01T20:19:39.818Z,9.18
2023-05-01T20:22:07.380Z,9.18
2023-05-01T20:24:34.516Z,9.18
2023-05-01T20:27:03.389Z,9.18
2023-05-01T20:29:30.471Z,9.20
2023-05-01T20:31:59.196Z,9.19
2023-05-01T20:34:26.450Z,9.18
2023-05-01T20:36:53.522Z,9.16
2023-05-01T20:39:20.687Z,9.15
2023-05-01T20:41:48.397Z,9.13
2023-05-01T20:44:15.775Z,9.12
2023-05-01T20:46:44.018Z,9.09
2023-05-01T20:49:14.412Z,9.09
2023-05-01T20:51:43.415Z,9.08
2023-05-01T20:54:11.249Z,9.05
2023-05-01T20:56:38.672Z,9.04
2023-05-01T20:59:07.063Z,9.03
2023-05-01T21:01:34.262Z,9.01
2023-05-01T21:04:01.601Z,8.99
2023-05-01T21:06:32.021Z,8.98
2023-05-01T21:09:00.863Z,8.96
2023-05-01T21:11:28.001Z,8.95
2023-05-01T21:13:57.369Z,8.93
2023-05-01T21:16:24.482Z,8.92
2023-05-01T21:18:51.615Z,8.90
2023-05-01T21:21:18.834Z,8.90
2023-05-01T21:23:49.190Z,8.88
2023-05-01T21:26:16.516Z,8.85
2023-05-01T21:28:43.810Z,8.84
2023-05-01T21:31:14.890Z,8.84
2023-05-01T21:33:45.988Z,8.84
2023-05-01T21:36:17.245Z,8.85
2023-05-01T21:38:46.235Z,8.86
2023-05-01T21:41:15.570Z,8.86
2023-05-01T21:43:43.042Z,8.87
2023-05-01T21:46:15.969Z,8.87
2023-05-01T21:48:43.661Z,8.86
2023-05-01T21:51:11.001Z,8.87
2023-05-01T21:53:41.314Z,8.87
2023-05-01T21:56:10.143Z,8.87
2023-05-01T21:58:38.773Z,8.87
2023-05-01T22:01:06.780Z,8.87
2023-05-01T22:03:34.346Z,8.87
2023-05-01T22:06:02.426Z,8.87
2023-05-01T22:08:29.508Z,8.88
2023-05-01T22:10:56.671Z,8.88
2023-05-01T22:13:23.859Z,8.89
2023-05-01T22:15:50.932Z,8.91
2023-05-01T22:18:19.770Z,8.91
2023-05-01T22:20:47.006Z,8.91
2023-05-01T22:23:14.593Z,8.91
2023-05-01T22:25:41.792Z,8.91
2023-05-01T22:28:09.271Z,8.90
2023-05-01T22:30:37.564Z,8.90
2023-05-01T22:33:04.675Z,8.88
2023-05-01T22:35:32.013Z,8.87
2023-05-01T22:37:59.129Z,8.87
2023-05-01T22:40:26.704Z,8.86
2023-05-01T22:42:53.730Z,8.84
2023-05-01T22:45:21.025Z,8.83
2023-05-01T22:47:48.108Z,8.82
2023-05-01T22:50:16.152Z,8.80
2023-05-01T22:52:45.890Z,8.78
2023-05-01T22:55:13.934Z,8.78
2023-05-01T22:57:41.138Z,8.75
2023-05-01T23:00:09.916Z,8.73
2023-05-01T23:02:37.188Z,8.73
2023-05-01T23:05:04.970Z,8.72
2023-05-01T23:07:32.397Z,8.70
2023-05-01T23:10:01.030Z,8.69
2023-05-01T23:12:29.039Z,8.67
2023-05-01T23:14:56.176Z,8.65
2023-05-01T23:17:23.364Z,8.62
2023-05-01T23:19:50.749Z,8.58
2023-05-01T23:22:19.540Z,8.54
2023-05-01T23:24:48.711Z,8.51
2023-05-01T23:27:17.551Z,8.49
2023-05-01T23:29:54.973Z,8.44
2023-05-01T23:32:30.355Z,8.40
2023-05-01T23:35:24.503Z,8.34
2023-05-01T23:37:53.128Z,8.30
2023-05-01T23:40:20.426Z,8.28
2023-05-01T23:42:48.271Z,8.26
2023-05-01T23:45:17.014Z,8.24
2023-05-01T23:47:44.193Z,8.22
2023-05-01T23:50:11.654Z,8.21
2023-05-01T23:52:38.842Z,8.19
2023-05-01T23:55:06.081Z,8.19
2023-05-01T23:57:33.159Z,8.17
